CheckWX is a tool to help pilots better visualize weather data.  It is not intended as a substitute for an official pre-flight weather briefing.

12:02:49 UTC

KDWX METAR
Dixon Airport
Dixon, Wyoming, USA
Current

33 mins ago

KDWX 251130Z AUTO 18006KT 10SM OVC036 M02/M04 A3035 RMK AO2 T10161039
Observed
Mar-25 @ 11:30 UTC
Wind
  • 180° at 6 KTS
Visibility
10 SM
Flight Rules
VFR
Cloud Levels
  • Overcast at 3,600' AGL
Temperature
-2°C / 28°F
Dewpoint
-4°C / 25°F
Humidity
86%
Altimeter
30.35" Hg
Pressure
1027.82 hPa
Previous

53 mins ago

KDWX 251110Z AUTO 17007KT 10SM BKN036 BKN042 M02/M04 A3034 RMK AO2 T10181038
Observed
Mar-25 @ 11:10 UTC
Wind
  • 170° at 7 KTS
Visibility
10 SM
Flight Rules
VFR
Cloud Levels
  • Broken at 3,600' AGL
  • Broken at 4,200' AGL
Temperature
-2°C / 28°F
Dewpoint
-4°C / 25°F
Humidity
86%
Altimeter
30.34" Hg
Pressure
1027.42 hPa
Previous

1 hour ago

KDWX 251055Z AUTO 17005KT 10SM BKN038 M01/M04 A3033 RMK AO2 T10141036
Observed
Mar-25 @ 10:55 UTC
Wind
  • 170° at 5 KTS
Visibility
10 SM
Flight Rules
VFR
Cloud Levels
  • Broken at 3,800' AGL
Temperature
-1°C / 30°F
Dewpoint
-4°C / 25°F
Humidity
80%
Altimeter
30.33" Hg
Pressure
1027.12 hPa